x

Fairweather Ground 105nm West Of Juno, Ak (46083) Wave Buoy

3:50am - Thu 21st Sep 2017 All times are AKDT. -8 hours from GMT.

  • Sig Wave height 4.3ft
  • Swell Direction
  • Peak Period 8s
  • Average Period 5s
  • Wind
    13mph, 16mph gusts
  • Sea Temp 56°f
  • Air Temp 54°f
  • Sea Pressure 1018.6mb
  • Fairweather Ground 105nm West  Of Juno, Ak
  • Fairweather Ground 105nm West  Of Juno, Ak

More Historic Weather Station data

Upgrade to MSW Pro to gain access to the past 30 days of data for over 8000 Wavebouys and Weather Stations around the globe.

Join

Comparision Forecast

View Surf forecast
   
Thu 09/21 3:50am 4.5ft 8s 5s 13 16 mph 1018.6mb 56f 54f
2:50am 4.5ft 8s 5s 16 18 mph 1018.4mb 56f 54f
1:50am 4.5ft 8s 5s 16 18 mph 1018.3mb 56f 55f
12:50am 4.5ft 8s 5s 16 18 mph 1018.1mb 56f 55f
Wed 09/20 11:50pm 5ft 8s 5s 16 18 mph 1018.1mb 56f 55f
10:50pm 5ft 9s 5s 13 16 mph 1018.2mb 56f 55f
9:50pm 5ft 9s 5s 13 16 mph 1018.3mb 56f 55f
8:50pm 4.5ft 8s 5s 16 18 mph 1018.3mb 56f 55f
7:50pm 4.5ft 6s 5s 18 20 mph 1018.4mb 56f 56f
6:50pm 4.5ft 9s 5s 16 20 mph 1018.1mb 56f 56f
5:50pm 4.5ft 8s 5s 18 22 mph 1018mb 56f 55f
4:50pm 5ft 8s 6s 16 18 mph 1017.8mb 56f 55f
3:50pm 4.5ft 9s 6s 13 16 mph 1017.7mb 56f 55f
2:50pm 5ft 8s 6s 13 16 mph 1017.6mb 56f 55f
1:50pm 5ft 8s 6s 13 16 mph 1017.7mb 56f 55f
12:50pm 5ft 9s 6s 18 20 mph 1018mb 56f 55f
11:50am 5.5ft 9s 6s 16 20 mph 1017.6mb 56f 55f
10:50am 5.5ft 9s 6s 9 11 mph 1017.2mb 56f 55f
9:50am 5ft 8s 6s 11 13 mph 1017.1mb 56f 55f
8:50am 5ft 8s 6s 16 20 mph 1017.1mb 56f 55f
7:50am 5ft 9s 6s 18 20 mph 1017mb 55f 55f
6:50am 5.5ft 9s 6s 20 25 mph 1016.8mb 55f 55f
5:50am 5ft 8s 6s 16 18 mph 1016.2mb 55f 55f
4:50am 6ft 9s 6s 16 18 mph 1015.4mb 55f 55f
3:50am 6ft 10s 6s 16 18 mph 1015.1mb 55f 55f
2:50am 5.5ft 8s 6s 20 22 mph 1015.1mb 55f 55f
1:50am 6ft 9s 6s 20 22 mph 1014.7mb 55f 55f
12:50am 5.5ft 9s 6s 20 22 mph 1014.1mb 55f 55f
Tue 09/19 11:50pm 5ft 9s 6s 18 20 mph 1013.5mb 55f 55f
10:50pm 5.5ft 8s 6s 18 20 mph 1013.2mb 55f 55f
9:50pm 6ft 9s 6s 20 22 mph 1012.8mb 56f 55f
8:50pm 5.5ft 9s 6s 20 22 mph 1012.5mb 56f 55f
7:50pm 6ft 10s 6s 20 25 mph 1012mb 56f 55f
6:50pm 6ft 10s 6s 22 25 mph 1011.2mb 55f 55f
5:50pm 6ft 10s 6s 20 25 mph 1010.8mb 55f 55f
4:50pm 6ft 10s  -  22 25 mph 1010.3mb 55f 55f
3:50pm 6ft 10s 6s 20 22 mph 1010mb 55f 55f
2:50pm 5ft 9s 7s 18 22 mph 1009.6mb 55f 55f
1:50pm 5ft 10s 7s 13 18 mph 1009.3mb 55f 55f
12:50pm 5.5ft 10s 8s 11 13 mph 1009mb 55f 55f
11:50am 5ft 11s 8s 9 11 mph 1008.8mb 55f 54f
10:50am 5ft 11s 7s 7 9 mph 1008.5mb 55f 54f
9:50am 5ft 10s 8s 4 7 mph 1008mb 55f 54f
8:50am 5ft 11s 8s 7 7 mph 1007.5mb 55f 54f
7:50am 5ft 11s 8s 7 9 mph 1007mb 55f 53f
6:50am 5ft 11s 7s 9 9 mph 1006.5mb 55f 53f
5:50am 6ft 11s 8s 7 9 mph 1006mb 55f 54f
4:50am 6.5ft 10s 8s 7 9 mph 1005.7mb 55f 54f
3:50am 6.5ft 12s 9s 9 11 mph 1005.2mb 56f 55f
2:50am 6.5ft 10s 8s 9 11 mph 1005.2mb 56f 55f
1:50am 7ft 11s 9s 7 9 mph 1005.2mb 56f 55f
12:50am 7ft 11s 9s 4 7 mph 1005.1mb 56f 54f
Mon 09/18 11:50pm 7ft 12s 9s 4 7 mph 1005.2mb 56f 54f
10:50pm 8ft 11s 9s 4 7 mph 1005.3mb 56f 54f
9:50pm 8ft 12s 9s 7 7 mph 1005.4mb 55f 55f
8:50pm 7ft 11s 9s 7 9 mph 1005.5mb 55f 55f
7:50pm 8ft 12s 10s 7 9 mph 1005.6mb 56f 54f
6:50pm 7.5ft 13s 9s 2 2 mph 1005.7mb 55f 54f
5:50pm 8ft 13s 9s 2 4 mph 1005.7mb 56f 54f
4:50pm 9ft 13s 9s 2 4 mph 1005.5mb 56f 54f
3:50pm 8.5ft 13s 9s 4 7 mph 1005.3mb 56f 54f
2:50pm 9ft 13s 9s 7 9 mph 1004.9mb 56f 54f
1:50pm 9ft 14s 9s 7 9 mph 1004.9mb 56f 54f
12:50pm 9.5ft 14s 10s 7 11 mph 1004.9mb 56f 54f
11:50am 9ft 14s 10s 4 9 mph 1004.9mb 56f 54f
10:50am 11ft 14s 10s 7 9 mph 1004.5mb 55f 54f
9:50am 10ft 13s 10s 7 7 mph 1004.3mb 55f 54f
8:50am 10ft 14s 10s 4 7 mph 1004.2mb 55f 54f
7:50am 10ft 14s 10s 4 7 mph 1004.1mb 55f 54f
6:50am 10.5ft 14s 10s 4 4 mph 1003.7mb 55f 54f
5:50am 10.5ft 13s 10s 4 7 mph 1003.2mb 55f 54f
4:50am 10.5ft 15s 10s 7 9 mph 1002.6mb 55f 54f
3:50am 11ft 14s 10s 9 11 mph 1002mb 55f 54f
2:50am 11.5ft 15s 10s 9 11 mph 1001.5mb 55f 54f
1:50am 10.5ft 15s 10s 11 13 mph 1001.1mb 55f 54f
12:50am 13ft 14s 11s 13 16 mph 1000.4mb 55f 54f
Sun 09/17 11:50pm 12.5ft 15s 10s 11 13 mph 1000.2mb 55f 54f
10:50pm 13ft 15s 10s 9 11 mph 999.7mb 55f 54f
9:50pm 12ft 13s 10s 7 11 mph 999.2mb 55f 53f
8:50pm 13ft 15s 11s 4 7 mph 999mb 55f 53f
7:50pm 12ft 14s 10s 7 11 mph 998.4mb 55f 54f
6:50pm 11.5ft 15s  -  9 13 mph 997.9mb 55f 54f
5:50pm 11ft 14s 10s 11 13 mph 997.4mb 55f 54f
4:50pm 11.5ft 14s 9s 16 18 mph 996.8mb 55f 54f
3:50pm 9ft 15s 8s 16 18 mph 996.5mb 55f 53f
2:50pm 8ft 11s 7s 18 20 mph 996.2mb 55f 53f
1:50pm 8.5ft 10s 7s 20 25 mph 995.7mb 55f 53f